createdAt,value
2022-11-02T00:02:04.929Z,11.45
2022-11-02T00:04:31.791Z,11.43
2022-11-02T00:06:58.571Z,11.42
2022-11-02T00:09:25.330Z,11.36
2022-11-02T00:11:52.109Z,11.34
2022-11-02T00:14:18.869Z,11.36
2022-11-02T00:16:45.587Z,11.35
2022-11-02T00:19:12.330Z,11.36
2022-11-02T00:21:39.106Z,11.30
2022-11-02T00:24:06.068Z,11.27
2022-11-02T00:26:33.357Z,11.32
2022-11-02T00:29:00.098Z,11.28
2022-11-02T00:31:26.846Z,11.31
2022-11-02T00:33:53.568Z,11.26
2022-11-02T00:36:20.468Z,11.24
2022-11-02T00:38:47.228Z,11.27
2022-11-02T00:41:14.010Z,11.25
2022-11-02T00:43:40.748Z,11.24
2022-11-02T00:46:07.508Z,11.22
2022-11-02T00:48:34.252Z,11.21
2022-11-02T00:51:01.008Z,11.19
2022-11-02T00:53:28.285Z,11.18
2022-11-02T00:55:55.166Z,11.15
2022-11-02T00:58:21.968Z,11.12
2022-11-02T01:00:48.767Z,11.14
2022-11-02T01:03:15.589Z,11.12
2022-11-02T01:05:42.347Z,11.10
2022-11-02T01:08:09.691Z,11.09
2022-11-02T01:10:36.452Z,11.09
2022-11-02T01:13:03.246Z,11.01
2022-11-02T01:15:30.027Z,11.03
2022-11-02T01:17:56.767Z,10.99
2022-11-02T01:20:23.490Z,10.94
2022-11-02T01:22:50.426Z,10.86
2022-11-02T01:25:17.771Z,10.76
2022-11-02T01:27:44.532Z,10.66
2022-11-02T01:30:11.887Z,10.57
2022-11-02T01:32:38.608Z,10.47
2022-11-02T01:35:05.626Z,10.38
2022-11-02T01:37:32.369Z,10.32
2022-11-02T01:39:59.131Z,10.23
2022-11-02T01:42:28.075Z,10.17
2022-11-02T01:44:54.871Z,10.11
2022-11-02T01:47:33.183Z,10.02
2022-11-02T01:50:07.128Z,9.90
2022-11-02T01:52:37.987Z,9.81
2022-11-02T01:55:10.368Z,9.71
2022-11-02T01:57:38.686Z,9.59
2022-11-02T02:00:08.348Z,9.47
2022-11-02T02:02:35.727Z,9.38
2022-11-02T02:05:07.466Z,9.22
2022-11-02T02:07:35.328Z,9.14
2022-11-02T02:10:02.071Z,9.02
2022-11-02T02:12:29.071Z,8.92
2022-11-02T02:14:55.835Z,8.82
2022-11-02T02:17:47.808Z,8.72
2022-11-02T02:20:20.790Z,8.59
2022-11-02T02:23:12.149Z,8.45
2022-11-02T02:25:51.150Z,8.32
2022-11-02T02:28:42.347Z,8.21
2022-11-02T02:31:26.109Z,8.04
2022-11-02T02:34:01.751Z,7.95
2022-11-02T02:36:35.557Z,7.89
2022-11-02T02:39:11.210Z,7.82
2022-11-02T02:41:42.948Z,7.71
2022-11-02T02:44:12.022Z,7.61
2022-11-02T02:47:04.509Z,7.46
2022-11-02T02:49:39.333Z,7.48
2022-11-02T02:52:06.130Z,7.42
2022-11-02T02:54:41.748Z,7.39
2022-11-02T02:57:11.149Z,7.36
2022-11-02T02:59:41.249Z,7.37
2022-11-02T03:02:11.890Z,7.35
2022-11-02T03:04:38.726Z,7.35
2022-11-02T03:07:05.487Z,7.41
2022-11-02T03:09:40.188Z,7.43
2022-11-02T03:12:17.428Z,7.37
2022-11-02T03:14:51.375Z,7.33
2022-11-02T03:17:25.968Z,7.28
2022-11-02T03:19:56.827Z,7.24
2022-11-02T03:22:30.548Z,7.18
2022-11-02T03:25:08.146Z,7.09
2022-11-02T03:27:38.949Z,7.07
2022-11-02T03:30:08.708Z,7.14
2022-11-02T03:32:59.213Z,7.10
2022-11-02T03:35:33.565Z,7.08
2022-11-02T03:38:22.427Z,7.00
2022-11-02T03:40:50.286Z,7.01
2022-11-02T03:43:17.246Z,6.99
2022-11-02T03:45:47.646Z,6.97
2022-11-02T03:48:14.430Z,6.94
2022-11-02T03:50:43.969Z,6.93
2022-11-02T03:53:12.688Z,6.93
2022-11-02T03:55:42.506Z,6.88
2022-11-02T03:58:12.407Z,6.85
2022-11-02T04:00:44.670Z,6.80
2022-11-02T04:03:11.426Z,6.75
2022-11-02T04:05:38.208Z,6.71
2022-11-02T04:08:23.435Z,6.66
2022-11-02T04:11:09.731Z,6.65
2022-11-02T04:13:55.149Z,6.63
2022-11-02T04:16:27.676Z,6.62
2022-11-02T04:19:13.189Z,6.64
2022-11-02T04:21:40.026Z,6.63
2022-11-02T04:24:25.688Z,6.65
2022-11-02T04:26:52.507Z,6.72
2022-11-02T04:29:19.275Z,6.88
2022-11-02T04:31:46.069Z,6.99
2022-11-02T04:34:12.851Z,6.93
2022-11-02T04:36:39.686Z,6.87
2022-11-02T04:39:06.408Z,6.81
2022-11-02T04:41:45.370Z,6.83
2022-11-02T04:44:14.320Z,6.76
2022-11-02T04:46:41.969Z,6.73
2022-11-02T04:49:09.272Z,6.69
2022-11-02T04:51:36.611Z,6.64
2022-11-02T04:54:03.434Z,6.61
2022-11-02T04:56:30.353Z,6.56
2022-11-02T04:58:58.329Z,6.44
2022-11-02T05:01:26.867Z,6.40
2022-11-02T05:03:54.532Z,6.42
2022-11-02T05:06:22.286Z,6.45
2022-11-02T05:08:49.027Z,6.41
2022-11-02T05:11:15.827Z,6.36
2022-11-02T05:13:42.688Z,6.29
2022-11-02T05:16:12.107Z,6.21
2022-11-02T05:18:38.851Z,6.16
2022-11-02T05:21:05.949Z,6.11
2022-11-02T05:23:32.727Z,6.08
2022-11-02T05:26:02.450Z,6.07
2022-11-02T05:28:29.456Z,6.06
2022-11-02T05:31:01.188Z,6.07
2022-11-02T05:33:30.806Z,6.07
2022-11-02T05:35:58.688Z,6.06
2022-11-02T05:38:25.612Z,6.05
2022-11-02T05:40:56.287Z,6.04
2022-11-02T05:43:23.209Z,6.03
2022-11-02T05:45:57.348Z,6.03
2022-11-02T05:48:24.416Z,6.02
2022-11-02T05:51:13.086Z,6.01
2022-11-02T05:53:39.891Z,6.03
2022-11-02T05:56:07.508Z,6.03
2022-11-02T05:58:34.386Z,6.03
2022-11-02T06:01:05.666Z,6.02
2022-11-02T06:03:32.547Z,5.98
2022-11-02T06:06:00.127Z,6.05
2022-11-02T06:08:26.949Z,6.03
2022-11-02T06:10:54.228Z,6.05
2022-11-02T06:13:21.048Z,6.16
2022-11-02T06:15:47.827Z,6.21
2022-11-02T06:18:14.633Z,6.27
2022-11-02T06:20:41.407Z,6.31
2022-11-02T06:23:08.758Z,6.37
2022-11-02T06:25:35.729Z,6.40
2022-11-02T06:28:02.489Z,6.46
2022-11-02T06:30:29.251Z,6.51
2022-11-02T06:32:56.007Z,6.52
2022-11-02T06:35:23.128Z,6.62
2022-11-02T06:37:49.908Z,6.68
2022-11-02T06:40:18.346Z,6.69
2022-11-02T06:43:03.347Z,6.88
2022-11-02T06:45:33.914Z,7.03
2022-11-02T06:48:00.788Z,7.20
2022-11-02T06:50:27.630Z,7.36
2022-11-02T06:52:54.486Z,7.57
2022-11-02T06:55:21.247Z,7.84
2022-11-02T06:57:48.019Z,8.09
2022-11-02T07:00:20.936Z,8.35
2022-11-02T07:03:07.317Z,8.71
2022-11-02T07:05:35.589Z,9.12
2022-11-02T07:08:02.449Z,9.59
2022-11-02T07:10:29.393Z,10.11
2022-11-02T07:12:56.712Z,10.56
2022-11-02T07:15:24.408Z,10.91
2022-11-02T07:17:52.228Z,11.14
2022-11-02T07:20:19.278Z,11.53
2022-11-02T07:22:55.928Z,11.76
2022-11-02T07:25:22.910Z,11.85
2022-11-02T07:27:49.731Z,12.08
2022-11-02T07:30:16.532Z,12.31
2022-11-02T07:32:43.909Z,12.59
2022-11-02T07:35:11.610Z,12.89
2022-11-02T07:37:38.626Z,13.25
2022-11-02T07:40:06.687Z,13.78
2022-11-02T07:42:33.516Z,14.28
2022-11-02T07:45:00.277Z,14.61
2022-11-02T07:47:27.091Z,14.97
2022-11-02T07:49:53.808Z,15.26
2022-11-02T07:52:20.585Z,15.71
2022-11-02T07:54:47.446Z,16.05
2022-11-02T07:57:14.229Z,16.32
2022-11-02T07:59:41.046Z,16.67
2022-11-02T08:02:10.306Z,16.83
2022-11-02T08:04:39.535Z,16.99
2022-11-02T08:07:09.246Z,17.42
2022-11-02T08:09:36.012Z,17.82
2022-11-02T08:12:02.788Z,18.14
2022-11-02T08:14:29.550Z,18.35
2022-11-02T08:16:56.327Z,18.86
2022-11-02T08:19:23.051Z,19.28
2022-11-02T08:21:49.829Z,19.65
2022-11-02T08:24:16.599Z,20.06
2022-11-02T08:26:45.367Z,20.37
2022-11-02T08:29:13.515Z,20.72
2022-11-02T08:31:40.248Z,21.02
2022-11-02T08:34:07.052Z,21.38
2022-11-02T08:36:36.692Z,21.65
2022-11-02T08:39:03.787Z,21.96
2022-11-02T08:41:30.588Z,22.20
2022-11-02T08:43:57.707Z,22.50
2022-11-02T08:46:24.588Z,22.79
2022-11-02T08:48:51.389Z,23.01
2022-11-02T08:51:18.129Z,23.23
2022-11-02T08:53:51.226Z,23.41
2022-11-02T08:56:18.149Z,23.37
2022-11-02T08:58:44.906Z,23.59
2022-11-02T09:01:11.747Z,23.84
2022-11-02T09:03:38.551Z,23.88
2022-11-02T09:06:05.498Z,24.22
2022-11-02T09:08:33.293Z,24.48
2022-11-02T09:11:01.761Z,24.37
2022-11-02T09:13:28.959Z,24.31
2022-11-02T09:15:58.115Z,24.13
2022-11-02T09:18:24.889Z,24.59
2022-11-02T09:20:51.876Z,24.95
2022-11-02T09:23:19.331Z,25.30
2022-11-02T09:25:46.101Z,25.61
2022-11-02T09:28:14.107Z,25.89
2022-11-02T09:30:40.968Z,26.13
2022-11-02T09:33:08.378Z,26.39
2022-11-02T09:35:37.047Z,26.61
2022-11-02T09:38:03.930Z,26.74
2022-11-02T09:40:35.655Z,27.01
2022-11-02T09:43:31.961Z,27.12
2022-11-02T09:46:08.028Z,27.27
2022-11-02T09:48:45.829Z,27.40
2022-11-02T09:51:23.665Z,27.37
2022-11-02T09:54:01.868Z,27.47
2022-11-02T09:56:28.658Z,27.58
2022-11-02T09:59:15.602Z,27.60
2022-11-02T10:02:01.167Z,27.57
2022-11-02T10:04:41.189Z,27.58
2022-11-02T10:07:40.690Z,27.51
2022-11-02T10:10:14.851Z,27.52
2022-11-02T10:13:05.150Z,27.44
2022-11-02T10:15:56.628Z,27.46
2022-11-02T10:18:27.847Z,27.41
2022-11-02T10:20:58.546Z,27.41
2022-11-02T10:23:37.427Z,27.41
2022-11-02T10:26:04.366Z,27.38
2022-11-02T10:28:35.608Z,27.40
2022-11-02T10:31:03.208Z,27.58
2022-11-02T10:33:30.729Z,27.54
2022-11-02T10:36:18.574Z,27.49
2022-11-02T10:39:23.269Z,26.14
2022-11-02T10:42:01.391Z,25.67
2022-11-02T10:44:52.167Z,26.02
2022-11-02T10:47:26.051Z,26.17
2022-11-02T10:49:55.527Z,26.49
2022-11-02T10:52:22.267Z,26.60
2022-11-02T10:54:52.167Z,26.72
2022-11-02T10:57:22.568Z,26.78
2022-11-02T11:00:31.378Z,26.88
2022-11-02T11:03:17.030Z,26.98
2022-11-02T11:05:49.898Z,27.02
2022-11-02T11:08:30.250Z,27.06
2022-11-02T11:11:36.068Z,27.22
2022-11-02T11:16:55.736Z,27.26
2022-11-02T11:19:39.407Z,27.34
2022-11-02T11:22:26.685Z,27.42
2022-11-02T11:24:54.237Z,27.37
2022-11-02T11:27:23.887Z,27.26
2022-11-02T11:29:56.016Z,27.18
2022-11-02T11:32:30.171Z,27.15
2022-11-02T11:35:02.874Z,27.00
2022-11-02T11:37:30.012Z,26.90
2022-11-02T11:40:10.112Z,26.77
2022-11-02T11:42:36.952Z,26.74
2022-11-02T11:45:22.357Z,25.33
2022-11-02T11:48:21.140Z,23.95
2022-11-02T11:50:48.430Z,22.98
2022-11-02T11:53:22.046Z,22.18
2022-11-02T11:55:52.931Z,21.72
2022-11-02T11:58:19.754Z,22.55
2022-11-02T12:00:46.507Z,22.70
2022-11-02T12:03:13.905Z,22.33
2022-11-02T12:05:58.290Z,21.90
2022-11-02T12:08:28.288Z,21.65
2022-11-02T12:11:01.578Z,22.14
2022-11-02T12:14:05.332Z,22.66
2022-11-02T12:16:59.932Z,22.48
2022-11-02T12:19:45.239Z,22.28
2022-11-02T12:22:34.669Z,22.32
2022-11-02T12:25:25.789Z,21.97
2022-11-02T12:28:17.007Z,21.78
2022-11-02T12:31:14.790Z,21.33
2022-11-02T12:33:59.890Z,20.73
2022-11-02T12:37:18.749Z,20.39
2022-11-02T12:39:59.249Z,19.87
2022-11-02T12:42:32.754Z,19.58
2022-11-02T12:45:37.540Z,19.45
2022-11-02T12:48:05.562Z,18.96
2022-11-02T12:50:51.087Z,18.42
2022-11-02T12:53:44.077Z,18.12
2022-11-02T12:56:28.189Z,17.82
2022-11-02T12:58:55.007Z,17.87
2022-11-02T13:01:27.850Z,18.27
2022-11-02T13:04:13.207Z,18.79
2022-11-02T13:06:48.386Z,18.93
2022-11-02T13:09:33.673Z,18.63
2022-11-02T13:12:16.388Z,18.16
2022-11-02T13:14:45.172Z,17.56
2022-11-02T13:17:30.733Z,17.02
2022-11-02T13:19:59.326Z,16.54
2022-11-02T13:22:33.249Z,16.16
2022-11-02T13:25:24.568Z,15.75
2022-11-02T13:28:04.294Z,15.39
2022-11-02T13:30:32.307Z,15.10
2022-11-02T13:33:02.284Z,14.84
2022-11-02T13:35:40.952Z,14.56
2022-11-02T13:38:43.167Z,14.35
2022-11-02T13:41:09.790Z,14.18
2022-11-02T13:44:13.642Z,13.98
2022-11-02T13:47:02.053Z,13.79
2022-11-02T13:49:36.709Z,13.57
2022-11-02T13:52:13.996Z,13.42
2022-11-02T13:55:02.019Z,13.26
2022-11-02T13:57:36.748Z,13.09
2022-11-02T14:00:06.375Z,12.92
2022-11-02T14:02:35.531Z,12.87
2022-11-02T14:05:02.389Z,12.72
2022-11-02T14:07:36.548Z,12.63
2022-11-02T14:10:29.611Z,12.51
2022-11-02T14:12:56.351Z,12.47
2022-11-02T14:15:23.031Z,12.44
2022-11-02T14:17:56.451Z,12.43
2022-11-02T14:20:39.731Z,12.42
2022-11-02T14:23:12.767Z,12.43
2022-11-02T14:25:45.393Z,12.40
2022-11-02T14:28:27.307Z,12.40
2022-11-02T14:31:06.107Z,12.38
2022-11-02T14:33:57.370Z,12.36
2022-11-02T14:36:39.387Z,12.35
2022-11-02T14:39:21.267Z,12.32
2022-11-02T14:41:47.995Z,12.29
2022-11-02T14:44:20.307Z,12.27
2022-11-02T14:47:12.589Z,12.23
2022-11-02T14:49:50.889Z,12.12
2022-11-02T14:52:28.689Z,12.09
2022-11-02T14:55:23.068Z,12.06
2022-11-02T14:57:58.949Z,11.99
2022-11-02T15:00:34.666Z,11.92
2022-11-02T15:03:01.598Z,11.81
2022-11-02T15:05:37.052Z,11.82
2022-11-02T15:08:16.772Z,11.71
2022-11-02T15:10:46.709Z,11.74
2022-11-02T15:13:24.534Z,11.73
2022-11-02T15:15:51.196Z,11.70
2022-11-02T15:18:30.216Z,11.70
2022-11-02T15:21:17.306Z,11.68
2022-11-02T15:24:02.852Z,11.65
2022-11-02T15:26:31.597Z,11.59
2022-11-02T15:29:00.506Z,11.61
2022-11-02T15:31:27.274Z,11.62
2022-11-02T15:33:56.248Z,11.62
2022-11-02T15:36:33.253Z,11.63
2022-11-02T15:39:02.427Z,11.62
2022-11-02T15:41:46.007Z,11.58
2022-11-02T15:44:38.634Z,11.57
2022-11-02T15:47:30.149Z,11.52
2022-11-02T15:50:21.449Z,11.46
2022-11-02T15:53:21.708Z,11.35
2022-11-02T15:56:03.988Z,11.36
2022-11-02T15:58:52.050Z,11.31
2022-11-02T16:01:25.652Z,11.27
2022-11-02T16:03:59.196Z,11.21
2022-11-02T16:06:36.747Z,11.12
2022-11-02T16:09:04.730Z,11.02
2022-11-02T16:11:32.016Z,11.03
2022-11-02T16:14:17.673Z,10.98
2022-11-02T16:16:48.423Z,10.94
2022-11-02T16:19:19.463Z,10.89
2022-11-02T16:21:46.622Z,10.85
2022-11-02T16:24:13.813Z,10.77
2022-11-02T16:26:42.378Z,10.75
2022-11-02T16:29:09.250Z,10.77
2022-11-02T16:31:35.995Z,10.71
2022-11-02T16:34:16.174Z,10.60
2022-11-02T16:36:43.019Z,10.62
2022-11-02T16:39:27.364Z,10.58
2022-11-02T16:41:56.933Z,10.49
2022-11-02T16:44:25.915Z,10.41
2022-11-02T16:47:00.779Z,10.38
2022-11-02T16:49:28.083Z,10.22
2022-11-02T16:51:58.733Z,10.25
2022-11-02T16:54:29.291Z,10.15
2022-11-02T16:56:57.821Z,10.07
2022-11-02T16:59:25.590Z,10.02
2022-11-02T17:01:52.417Z,9.91
2022-11-02T17:04:27.018Z,9.75
2022-11-02T17:06:55.432Z,9.58
2022-11-02T17:09:33.079Z,9.42
2022-11-02T17:12:04.600Z,9.23
2022-11-02T17:14:31.401Z,9.13
2022-11-02T17:17:07.647Z,8.98
2022-11-02T17:19:40.172Z,8.83
2022-11-02T17:22:26.010Z,8.68
2022-11-02T17:25:34.989Z,8.56
2022-11-02T17:28:03.939Z,8.38
2022-11-02T17:30:33.711Z,8.35
2022-11-02T17:33:34.098Z,8.27
2022-11-02T17:36:06.485Z,8.18
2022-11-02T17:38:33.300Z,8.12
2022-11-02T17:41:00.367Z,8.04
2022-11-02T17:43:27.357Z,7.94
2022-11-02T17:46:00.665Z,7.87
2022-11-02T17:48:31.167Z,7.83
2022-11-02T17:50:59.918Z,7.77
2022-11-02T17:53:26.917Z,7.65
2022-11-02T17:55:56.184Z,7.60
2022-11-02T17:58:22.982Z,7.51
2022-11-02T18:00:49.778Z,7.48
2022-11-02T18:03:19.275Z,7.49
2022-11-02T18:05:49.488Z,7.40
2022-11-02T18:08:17.650Z,7.37
2022-11-02T18:10:45.917Z,7.31
2022-11-02T18:13:30.713Z,7.26
2022-11-02T18:15:57.438Z,7.22
2022-11-02T18:18:24.263Z,7.23
2022-11-02T18:20:51.027Z,7.29
2022-11-02T18:23:19.959Z,7.25
2022-11-02T18:25:46.847Z,7.20
2022-11-02T18:28:14.388Z,7.12
2022-11-02T18:30:46.643Z,7.07
2022-11-02T18:33:14.368Z,7.09
2022-11-02T18:35:42.376Z,7.07
2022-11-02T18:38:09.210Z,7.06
2022-11-02T18:40:36.150Z,7.04
2022-11-02T18:43:03.241Z,7.00
2022-11-02T18:47:57.111Z,7.15
2022-11-02T18:50:23.841Z,7.24
2022-11-02T18:52:51.037Z,7.36
2022-11-02T18:55:17.870Z,7.42
2022-11-02T18:57:45.151Z,7.57
2022-11-02T19:00:12.373Z,7.59
2022-11-02T19:02:40.838Z,7.85
2022-11-02T19:05:27.849Z,7.96
2022-11-02T19:08:12.994Z,8.12
2022-11-02T19:10:39.731Z,8.24
2022-11-02T19:13:07.825Z,8.23
2022-11-02T19:15:37.316Z,8.35
2022-11-02T19:18:08.108Z,8.34
2022-11-02T19:20:34.869Z,8.34
2022-11-02T19:23:01.660Z,8.31
2022-11-02T19:25:28.419Z,8.28
2022-11-02T19:27:55.138Z,8.23
2022-11-02T19:30:21.831Z,8.17
2022-11-02T19:32:48.619Z,8.06
2022-11-02T19:35:15.473Z,7.94
2022-11-02T19:37:42.186Z,7.93
2022-11-02T19:40:09.697Z,7.85
2022-11-02T19:42:36.494Z,7.75
2022-11-02T19:45:03.891Z,7.69
2022-11-02T19:47:30.696Z,7.61
2022-11-02T19:49:57.555Z,7.57
2022-11-02T19:52:24.668Z,7.50
2022-11-02T19:54:51.453Z,7.37
2022-11-02T19:57:18.240Z,7.31
2022-11-02T19:59:45.000Z,7.20
2022-11-02T20:02:11.729Z,7.12
2022-11-02T20:04:42.356Z,7.12
2022-11-02T20:07:09.413Z,7.07
2022-11-02T20:09:36.176Z,7.03
2022-11-02T20:12:04.894Z,6.95
2022-11-02T20:14:33.673Z,6.88
2022-11-02T20:17:25.334Z,6.78
2022-11-02T20:19:47.163Z,6.65
2022-11-02T20:22:13.989Z,6.68
2022-11-02T20:24:40.757Z,6.66
2022-11-02T20:27:08.189Z,6.63
2022-11-02T20:29:35.048Z,6.63
2022-11-02T20:32:02.019Z,6.60
2022-11-02T20:34:28.837Z,6.59
2022-11-02T20:36:55.610Z,6.55
2022-11-02T20:39:22.414Z,6.55
2022-11-02T20:41:52.693Z,6.53
2022-11-02T20:44:22.156Z,6.48
2022-11-02T20:46:53.031Z,6.41
2022-11-02T20:49:29.355Z,6.40
2022-11-02T20:52:07.755Z,6.29
2022-11-02T20:54:34.561Z,6.34
2022-11-02T20:57:01.336Z,6.32
2022-11-02T20:59:28.110Z,6.30
2022-11-02T21:01:55.162Z,6.30
2022-11-02T21:04:22.107Z,6.33
2022-11-02T21:06:49.450Z,6.35
2022-11-02T21:09:16.530Z,6.35
2022-11-02T21:12:02.094Z,6.28
2022-11-02T21:14:28.890Z,6.33
2022-11-02T21:16:55.645Z,6.34
2022-11-02T21:19:22.437Z,6.32
2022-11-02T21:21:49.214Z,6.34
2022-11-02T21:24:15.970Z,6.28
2022-11-02T21:26:42.776Z,6.37
2022-11-02T21:29:09.719Z,6.36
2022-11-02T21:31:36.908Z,6.35
2022-11-02T21:34:03.732Z,6.37
2022-11-02T21:36:30.580Z,6.33
2022-11-02T21:38:58.876Z,6.37
2022-11-02T21:41:28.184Z,6.36
2022-11-02T21:43:55.661Z,6.37
2022-11-02T21:46:22.598Z,6.39
2022-11-02T21:48:49.346Z,6.40
2022-11-02T21:51:17.732Z,6.37
2022-11-02T21:53:45.085Z,6.37
2022-11-02T21:56:28.184Z,6.30
2022-11-02T21:58:55.716Z,6.35
2022-11-02T22:01:42.755Z,6.29
2022-11-02T22:04:09.824Z,6.25
2022-11-02T22:06:39.581Z,6.31
2022-11-02T22:09:07.244Z,6.30
2022-11-02T22:11:34.141Z,6.38
2022-11-02T22:14:01.108Z,6.48
2022-11-02T22:16:28.634Z,6.53
2022-11-02T22:18:56.785Z,6.51
2022-11-02T22:21:24.306Z,6.52
2022-11-02T22:23:51.871Z,6.48
2022-11-02T22:26:22.513Z,6.52
2022-11-02T22:28:49.438Z,6.52
2022-11-02T22:31:21.121Z,6.54
2022-11-02T22:33:49.605Z,6.67
2022-11-02T22:36:19.694Z,6.72
2022-11-02T22:38:51.403Z,6.83
2022-11-02T22:41:22.615Z,6.90
2022-11-02T22:43:51.224Z,6.96
2022-11-02T22:46:18.000Z,6.99
2022-11-02T22:48:44.766Z,7.04
2022-11-02T22:51:11.697Z,7.08
2022-11-02T22:53:38.796Z,7.04
2022-11-02T22:56:11.954Z,7.17
2022-11-02T22:58:39.947Z,7.24
2022-11-02T23:01:07.352Z,7.32
2022-11-02T23:03:34.520Z,7.36
2022-11-02T23:06:01.475Z,7.41
2022-11-02T23:08:28.608Z,7.41
2022-11-02T23:11:14.837Z,7.43
2022-11-02T23:13:41.724Z,7.42
2022-11-02T23:16:26.922Z,7.49
2022-11-02T23:19:23.591Z,7.46
2022-11-02T23:22:18.260Z,7.56
2022-11-02T23:25:10.911Z,7.54
2022-11-02T23:28:28.391Z,7.56
2022-11-02T23:31:21.325Z,7.52
2022-11-02T23:33:48.015Z,7.42
2022-11-02T23:36:16.048Z,7.31
2022-11-02T23:39:02.895Z,7.32
2022-11-02T23:41:30.385Z,7.21
2022-11-02T23:44:16.066Z,7.20
2022-11-02T23:46:44.125Z,7.11
2022-11-02T23:49:11.597Z,7.15
2022-11-02T23:51:56.756Z,7.07
2022-11-02T23:54:41.897Z,7.08
2022-11-02T23:57:08.607Z,7.08
2022-11-02T23:59:35.356Z,7.06
